sensor_id;sensor_type;location;lat;lon;timestamp;P1;durP1;ratioP1;P2;durP2;ratioP2
11447;SDS011;43755;49.736;8.734;2022-09-21T00:02:01;3.42;;;2.10;;
11447;SDS011;43755;49.736;8.734;2022-09-21T00:04:04;2.17;;;2.08;;
11447;SDS011;43755;49.736;8.734;2022-09-21T00:06:06;5.13;;;2.22;;
11447;SDS011;43755;49.736;8.734;2022-09-21T00:08:11;2.78;;;2.13;;
11447;SDS011;43755;49.736;8.734;2022-09-21T00:10:13;3.05;;;2.30;;
11447;SDS011;43755;49.736;8.734;2022-09-21T00:12:15;3.80;;;2.30;;
11447;SDS011;43755;49.736;8.734;2022-09-21T00:14:18;3.00;;;2.10;;
11447;SDS011;43755;49.736;8.734;2022-09-21T00:16:20;4.78;;;2.40;;
11447;SDS011;43755;49.736;8.734;2022-09-21T00:18:22;5.25;;;2.20;;
11447;SDS011;43755;49.736;8.734;2022-09-21T00:20:25;2.40;;;2.20;;
11447;SDS011;43755;49.736;8.734;2022-09-21T00:22:28;3.58;;;2.10;;
11447;SDS011;43755;49.736;8.734;2022-09-21T00:24:29;2.78;;;2.47;;
11447;SDS011;43755;49.736;8.734;2022-09-21T00:26:30;2.67;;;2.40;;
11447;SDS011;43755;49.736;8.734;2022-09-21T00:28:32;2.50;;;2.30;;
11447;SDS011;43755;49.736;8.734;2022-09-21T00:30:33;3.60;;;2.60;;
11447;SDS011;43755;49.736;8.734;2022-09-21T00:32:35;4.78;;;2.42;;
11447;SDS011;43755;49.736;8.734;2022-09-21T00:34:38;4.22;;;2.30;;
11447;SDS011;43755;49.736;8.734;2022-09-21T00:36:41;3.10;;;2.45;;
11447;SDS011;43755;49.736;8.734;2022-09-21T00:38:43;3.53;;;2.70;;
11447;SDS011;43755;49.736;8.734;2022-09-21T00:40:45;3.25;;;2.92;;
11447;SDS011;43755;49.736;8.734;2022-09-21T00:42:46;3.00;;;2.80;;
11447;SDS011;43755;49.736;8.734;2022-09-21T00:44:48;3.45;;;2.85;;
11447;SDS011;43755;49.736;8.734;2022-09-21T00:46:51;3.78;;;3.28;;
11447;SDS011;43755;49.736;8.734;2022-09-21T00:48:54;5.40;;;3.63;;
11447;SDS011;43755;49.736;8.734;2022-09-21T00:50:55;4.75;;;4.25;;
11447;SDS011;43755;49.736;8.734;2022-09-21T00:53:04;7.60;;;4.03;;
11447;SDS011;43755;49.736;8.734;2022-09-21T00:55:07;4.68;;;4.13;;
11447;SDS011;43755;49.736;8.734;2022-09-21T00:57:13;5.30;;;4.15;;
11447;SDS011;43755;49.736;8.734;2022-09-21T00:59:16;5.07;;;3.55;;
11447;SDS011;43755;49.736;8.734;2022-09-21T01:01:19;6.47;;;4.07;;
11447;SDS011;43755;49.736;8.734;2022-09-21T01:03:21;5.05;;;3.60;;
11447;SDS011;43755;49.736;8.734;2022-09-21T01:05:22;3.63;;;3.28;;
11447;SDS011;43755;49.736;8.734;2022-09-21T01:07:24;4.60;;;3.10;;
11447;SDS011;43755;49.736;8.734;2022-09-21T01:09:29;3.25;;;2.83;;
11447;SDS011;43755;49.736;8.734;2022-09-21T01:11:32;3.35;;;2.45;;
11447;SDS011;43755;49.736;8.734;2022-09-21T01:13:41;2.72;;;2.40;;
11447;SDS011;43755;49.736;8.734;2022-09-21T01:15:54;2.45;;;2.25;;
11447;SDS011;43755;49.736;8.734;2022-09-21T01:18:04;6.50;;;3.08;;
11447;SDS011;43755;49.736;8.734;2022-09-21T01:20:24;3.72;;;2.65;;
11447;SDS011;43755;49.736;8.734;2022-09-21T01:22:44;3.92;;;3.30;;
11447;SDS011;43755;49.736;8.734;2022-09-21T01:25:02;4.00;;;3.63;;
11447;SDS011;43755;49.736;8.734;2022-09-21T01:27:21;3.97;;;3.50;;
11447;SDS011;43755;49.736;8.734;2022-09-21T01:29:35;3.28;;;2.90;;
11447;SDS011;43755;49.736;8.734;2022-09-21T01:31:45;3.63;;;2.80;;
11447;SDS011;43755;49.736;8.734;2022-09-21T01:33:52;4.32;;;2.97;;
11447;SDS011;43755;49.736;8.734;2022-09-21T01:35:58;3.10;;;2.80;;
11447;SDS011;43755;49.736;8.734;2022-09-21T01:38:04;3.67;;;2.40;;
11447;SDS011;43755;49.736;8.734;2022-09-21T01:40:08;3.13;;;2.50;;
11447;SDS011;43755;49.736;8.734;2022-09-21T01:42:13;3.72;;;2.60;;
11447;SDS011;43755;49.736;8.734;2022-09-21T01:44:18;2.72;;;2.40;;
11447;SDS011;43755;49.736;8.734;2022-09-21T01:46:26;5.47;;;2.50;;
11447;SDS011;43755;49.736;8.734;2022-09-21T01:48:31;3.70;;;2.65;;
11447;SDS011;43755;49.736;8.734;2022-09-21T01:50:36;3.20;;;2.90;;
11447;SDS011;43755;49.736;8.734;2022-09-21T01:52:41;2.58;;;2.38;;
11447;SDS011;43755;49.736;8.734;2022-09-21T01:54:48;2.78;;;2.58;;
11447;SDS011;43755;49.736;8.734;2022-09-21T01:56:53;2.70;;;2.50;;
11447;SDS011;43755;49.736;8.734;2022-09-21T01:59:01;6.05;;;2.53;;
11447;SDS011;43755;49.736;8.734;2022-09-21T02:01:07;5.10;;;2.60;;
11447;SDS011;43755;49.736;8.734;2022-09-21T02:03:15;3.75;;;2.72;;
11447;SDS011;43755;49.736;8.734;2022-09-21T02:05:21;2.88;;;2.47;;
11447;SDS011;43755;49.736;8.734;2022-09-21T02:07:25;3.05;;;2.75;;
11447;SDS011;43755;49.736;8.734;2022-09-21T02:09:28;2.45;;;2.30;;
11447;SDS011;43755;49.736;8.734;2022-09-21T02:11:30;3.50;;;3.17;;
11447;SDS011;43755;49.736;8.734;2022-09-21T02:13:33;4.55;;;3.15;;
11447;SDS011;43755;49.736;8.734;2022-09-21T02:15:44;3.05;;;2.80;;
11447;SDS011;43755;49.736;8.734;2022-09-21T02:17:58;3.20;;;2.58;;
11447;SDS011;43755;49.736;8.734;2022-09-21T02:20:08;2.60;;;2.40;;
11447;SDS011;43755;49.736;8.734;2022-09-21T02:22:21;3.70;;;3.00;;
11447;SDS011;43755;49.736;8.734;2022-09-21T02:24:32;4.43;;;2.65;;
11447;SDS011;43755;49.736;8.734;2022-09-21T02:26:41;4.60;;;2.85;;
11447;SDS011;43755;49.736;8.734;2022-09-21T02:28:48;3.08;;;2.78;;
11447;SDS011;43755;49.736;8.734;2022-09-21T02:31:00;3.47;;;3.15;;
11447;SDS011;43755;49.736;8.734;2022-09-21T02:33:14;3.15;;;2.78;;
11447;SDS011;43755;49.736;8.734;2022-09-21T02:35:29;4.00;;;2.88;;
11447;SDS011;43755;49.736;8.734;2022-09-21T02:37:36;4.65;;;2.97;;
11447;SDS011;43755;49.736;8.734;2022-09-21T02:39:46;3.15;;;2.85;;
11447;SDS011;43755;49.736;8.734;2022-09-21T02:41:55;3.22;;;2.78;;
11447;SDS011;43755;49.736;8.734;2022-09-21T02:44:05;4.13;;;2.90;;
11447;SDS011;43755;49.736;8.734;2022-09-21T02:46:12;3.17;;;2.88;;
11447;SDS011;43755;49.736;8.734;2022-09-21T02:48:17;5.53;;;2.83;;
11447;SDS011;43755;49.736;8.734;2022-09-21T02:50:23;3.28;;;3.08;;
11447;SDS011;43755;49.736;8.734;2022-09-21T02:52:32;3.10;;;2.80;;
11447;SDS011;43755;49.736;8.734;2022-09-21T02:54:36;4.18;;;3.10;;
11447;SDS011;43755;49.736;8.734;2022-09-21T02:56:40;4.13;;;3.03;;
11447;SDS011;43755;49.736;8.734;2022-09-21T02:58:44;3.45;;;2.88;;
11447;SDS011;43755;49.736;8.734;2022-09-21T03:00:49;4.28;;;2.95;;
11447;SDS011;43755;49.736;8.734;2022-09-21T03:02:51;4.45;;;2.80;;
11447;SDS011;43755;49.736;8.734;2022-09-21T03:04:52;4.40;;;3.25;;
11447;SDS011;43755;49.736;8.734;2022-09-21T03:06:55;3.33;;;2.92;;
11447;SDS011;43755;49.736;8.734;2022-09-21T03:08:56;3.72;;;2.70;;
11447;SDS011;43755;49.736;8.734;2022-09-21T03:10:58;3.22;;;2.70;;
11447;SDS011;43755;49.736;8.734;2022-09-21T03:12:59;3.50;;;2.75;;
11447;SDS011;43755;49.736;8.734;2022-09-21T03:15:01;3.10;;;2.90;;
11447;SDS011;43755;49.736;8.734;2022-09-21T03:17:03;3.00;;;2.70;;
11447;SDS011;43755;49.736;8.734;2022-09-21T03:19:04;2.85;;;2.65;;
11447;SDS011;43755;49.736;8.734;2022-09-21T03:21:06;3.05;;;2.75;;
11447;SDS011;43755;49.736;8.734;2022-09-21T03:23:08;3.30;;;2.88;;
11447;SDS011;43755;49.736;8.734;2022-09-21T03:25:10;3.22;;;2.92;;
11447;SDS011;43755;49.736;8.734;2022-09-21T03:27:12;6.53;;;3.33;;
11447;SDS011;43755;49.736;8.734;2022-09-21T03:29:14;3.60;;;3.30;;
11447;SDS011;43755;49.736;8.734;2022-09-21T03:31:15;3.45;;;3.20;;
11447;SDS011;43755;49.736;8.734;2022-09-21T03:33:17;3.50;;;3.20;;
11447;SDS011;43755;49.736;8.734;2022-09-21T03:35:21;4.03;;;3.20;;
11447;SDS011;43755;49.736;8.734;2022-09-21T03:37:24;4.90;;;3.50;;
11447;SDS011;43755;49.736;8.734;2022-09-21T03:39:27;4.15;;;3.28;;
11447;SDS011;43755;49.736;8.734;2022-09-21T03:41:28;4.65;;;3.33;;
11447;SDS011;43755;49.736;8.734;2022-09-21T03:43:30;4.93;;;3.30;;
11447;SDS011;43755;49.736;8.734;2022-09-21T03:45:31;5.55;;;3.90;;
11447;SDS011;43755;49.736;8.734;2022-09-21T03:47:33;4.38;;;3.67;;
11447;SDS011;43755;49.736;8.734;2022-09-21T03:49:34;4.05;;;3.65;;
11447;SDS011;43755;49.736;8.734;2022-09-21T03:51:37;8.93;;;4.13;;
11447;SDS011;43755;49.736;8.734;2022-09-21T03:53:39;6.07;;;3.78;;
11447;SDS011;43755;49.736;8.734;2022-09-21T03:55:42;3.95;;;3.55;;
11447;SDS011;43755;49.736;8.734;2022-09-21T03:57:44;4.45;;;3.47;;
11447;SDS011;43755;49.736;8.734;2022-09-21T03:59:45;5.18;;;3.63;;
11447;SDS011;43755;49.736;8.734;2022-09-21T04:01:47;6.40;;;3.45;;
11447;SDS011;43755;49.736;8.734;2022-09-21T04:03:48;6.40;;;3.90;;
11447;SDS011;43755;49.736;8.734;2022-09-21T04:05:49;5.13;;;4.15;;
11447;SDS011;43755;49.736;8.734;2022-09-21T04:07:51;4.50;;;3.72;;
11447;SDS011;43755;49.736;8.734;2022-09-21T04:09:55;3.83;;;3.53;;
11447;SDS011;43755;49.736;8.734;2022-09-21T04:11:57;4.35;;;3.35;;
11447;SDS011;43755;49.736;8.734;2022-09-21T04:13:59;3.60;;;3.33;;
11447;SDS011;43755;49.736;8.734;2022-09-21T04:16:01;3.70;;;3.40;;
11447;SDS011;43755;49.736;8.734;2022-09-21T04:18:02;3.50;;;3.20;;
11447;SDS011;43755;49.736;8.734;2022-09-21T04:20:04;5.03;;;3.55;;
11447;SDS011;43755;49.736;8.734;2022-09-21T04:22:08;6.43;;;3.30;;
11447;SDS011;43755;49.736;8.734;2022-09-21T04:24:11;3.42;;;3.13;;
11447;SDS011;43755;49.736;8.734;2022-09-21T04:26:17;3.90;;;3.50;;
11447;SDS011;43755;49.736;8.734;2022-09-21T04:28:22;6.72;;;3.22;;
11447;SDS011;43755;49.736;8.734;2022-09-21T04:30:23;5.00;;;3.30;;
11447;SDS011;43755;49.736;8.734;2022-09-21T04:32:25;3.40;;;3.10;;
11447;SDS011;43755;49.736;8.734;2022-09-21T04:34:26;3.63;;;3.33;;
11447;SDS011;43755;49.736;8.734;2022-09-21T04:36:28;3.70;;;3.10;;
11447;SDS011;43755;49.736;8.734;2022-09-21T04:38:31;3.70;;;3.40;;
11447;SDS011;43755;49.736;8.734;2022-09-21T04:40:32;6.40;;;3.95;;
11447;SDS011;43755;49.736;8.734;2022-09-21T04:42:34;5.88;;;4.90;;
11447;SDS011;43755;49.736;8.734;2022-09-21T04:44:36;12.73;;;10.18;;
11447;SDS011;43755;49.736;8.734;2022-09-21T04:46:38;16.27;;;14.88;;
11447;SDS011;43755;49.736;8.734;2022-09-21T04:48:39;20.13;;;18.30;;
11447;SDS011;43755;49.736;8.734;2022-09-21T04:50:41;22.08;;;19.85;;
11447;SDS011;43755;49.736;8.734;2022-09-21T04:52:42;17.08;;;15.48;;
11447;SDS011;43755;49.736;8.734;2022-09-21T04:54:44;12.30;;;11.02;;
11447;SDS011;43755;49.736;8.734;2022-09-21T04:56:45;16.27;;;14.57;;
11447;SDS011;43755;49.736;8.734;2022-09-21T04:58:47;15.43;;;13.93;;
11447;SDS011;43755;49.736;8.734;2022-09-21T05:00:50;13.52;;;12.23;;
11447;SDS011;43755;49.736;8.734;2022-09-21T05:02:54;10.40;;;9.15;;
11447;SDS011;43755;49.736;8.734;2022-09-21T05:04:55;11.57;;;8.70;;
11447;SDS011;43755;49.736;8.734;2022-09-21T05:06:56;9.95;;;8.93;;
11447;SDS011;43755;49.736;8.734;2022-09-21T05:08:58;8.55;;;6.78;;
11447;SDS011;43755;49.736;8.734;2022-09-21T05:11:17;11.02;;;6.80;;
11447;SDS011;43755;49.736;8.734;2022-09-21T05:13:19;6.72;;;6.13;;
11447;SDS011;43755;49.736;8.734;2022-09-21T05:15:20;7.70;;;7.00;;
11447;SDS011;43755;49.736;8.734;2022-09-21T05:17:23;7.78;;;6.97;;
11447;SDS011;43755;49.736;8.734;2022-09-21T05:19:24;7.38;;;6.68;;
11447;SDS011;43755;49.736;8.734;2022-09-21T05:21:26;11.38;;;9.80;;
11447;SDS011;43755;49.736;8.734;2022-09-21T05:23:28;15.05;;;12.85;;
11447;SDS011;43755;49.736;8.734;2022-09-21T05:25:31;12.57;;;11.13;;
11447;SDS011;43755;49.736;8.734;2022-09-21T05:27:32;14.73;;;10.40;;
11447;SDS011;43755;49.736;8.734;2022-09-21T05:29:34;13.68;;;12.38;;
11447;SDS011;43755;49.736;8.734;2022-09-21T05:31:37;17.42;;;15.68;;
11447;SDS011;43755;49.736;8.734;2022-09-21T05:33:46;15.55;;;13.00;;
11447;SDS011;43755;49.736;8.734;2022-09-21T05:35:53;10.63;;;9.70;;
11447;SDS011;43755;49.736;8.734;2022-09-21T05:38:04;9.60;;;8.60;;
11447;SDS011;43755;49.736;8.734;2022-09-21T05:40:11;12.05;;;8.85;;
11447;SDS011;43755;49.736;8.734;2022-09-21T05:42:13;14.48;;;12.45;;
11447;SDS011;43755;49.736;8.734;2022-09-21T05:44:15;13.13;;;11.68;;
11447;SDS011;43755;49.736;8.734;2022-09-21T05:46:17;12.90;;;11.07;;
11447;SDS011;43755;49.736;8.734;2022-09-21T05:48:22;12.40;;;9.77;;
11447;SDS011;43755;49.736;8.734;2022-09-21T05:50:39;12.07;;;8.73;;
11447;SDS011;43755;49.736;8.734;2022-09-21T05:52:48;12.38;;;9.30;;
11447;SDS011;43755;49.736;8.734;2022-09-21T05:55:00;10.05;;;8.38;;
11447;SDS011;43755;49.736;8.734;2022-09-21T05:57:08;10.48;;;9.10;;
11447;SDS011;43755;49.736;8.734;2022-09-21T05:59:37;14.32;;;10.07;;
11447;SDS011;43755;49.736;8.734;2022-09-21T06:01:50;11.70;;;10.50;;
11447;SDS011;43755;49.736;8.734;2022-09-21T06:04:00;10.88;;;9.60;;
11447;SDS011;43755;49.736;8.734;2022-09-21T06:06:04;10.43;;;9.32;;
11447;SDS011;43755;49.736;8.734;2022-09-21T06:08:07;9.73;;;8.73;;
11447;SDS011;43755;49.736;8.734;2022-09-21T06:10:09;9.82;;;8.93;;
11447;SDS011;43755;49.736;8.734;2022-09-21T06:12:13;11.27;;;8.98;;
11447;SDS011;43755;49.736;8.734;2022-09-21T06:14:14;10.38;;;9.30;;
11447;SDS011;43755;49.736;8.734;2022-09-21T06:16:15;12.25;;;9.35;;
11447;SDS011;43755;49.736;8.734;2022-09-21T06:18:17;10.43;;;9.38;;
11447;SDS011;43755;49.736;8.734;2022-09-21T06:20:18;12.13;;;9.07;;
11447;SDS011;43755;49.736;8.734;2022-09-21T06:22:21;10.35;;;8.02;;
11447;SDS011;43755;49.736;8.734;2022-09-21T06:24:22;9.15;;;8.27;;
11447;SDS011;43755;49.736;8.734;2022-09-21T06:26:24;11.88;;;7.60;;
11447;SDS011;43755;49.736;8.734;2022-09-21T06:28:27;10.30;;;7.88;;
11447;SDS011;43755;49.736;8.734;2022-09-21T06:30:29;8.05;;;7.25;;
11447;SDS011;43755;49.736;8.734;2022-09-21T06:32:32;7.00;;;6.15;;
11447;SDS011;43755;49.736;8.734;2022-09-21T06:34:33;7.18;;;6.30;;
11447;SDS011;43755;49.736;8.734;2022-09-21T06:36:35;7.00;;;6.40;;
11447;SDS011;43755;49.736;8.734;2022-09-21T06:38:38;7.78;;;6.57;;
11447;SDS011;43755;49.736;8.734;2022-09-21T06:40:40;8.52;;;6.97;;
11447;SDS011;43755;49.736;8.734;2022-09-21T06:42:41;7.68;;;6.93;;
11447;SDS011;43755;49.736;8.734;2022-09-21T06:44:42;7.85;;;7.05;;
11447;SDS011;43755;49.736;8.734;2022-09-21T06:46:44;10.35;;;9.30;;
11447;SDS011;43755;49.736;8.734;2022-09-21T06:48:45;9.50;;;8.35;;
11447;SDS011;43755;49.736;8.734;2022-09-21T06:50:48;10.02;;;9.02;;
11447;SDS011;43755;49.736;8.734;2022-09-21T06:52:49;11.20;;;8.30;;
11447;SDS011;43755;49.736;8.734;2022-09-21T06:54:52;10.35;;;8.35;;
11447;SDS011;43755;49.736;8.734;2022-09-21T06:56:54;11.90;;;9.57;;
11447;SDS011;43755;49.736;8.734;2022-09-21T06:58:55;11.07;;;9.05;;
11447;SDS011;43755;49.736;8.734;2022-09-21T07:00:56;11.65;;;8.55;;
11447;SDS011;43755;49.736;8.734;2022-09-21T07:02:58;12.55;;;7.70;;
11447;SDS011;43755;49.736;8.734;2022-09-21T07:04:59;9.75;;;7.95;;
11447;SDS011;43755;49.736;8.734;2022-09-21T07:07:01;9.85;;;6.72;;
11447;SDS011;43755;49.736;8.734;2022-09-21T07:09:03;8.68;;;6.20;;
11447;SDS011;43755;49.736;8.734;2022-09-21T07:11:06;6.53;;;5.93;;
11447;SDS011;43755;49.736;8.734;2022-09-21T07:13:07;7.60;;;5.50;;
11447;SDS011;43755;49.736;8.734;2022-09-21T07:15:09;8.25;;;5.85;;
11447;SDS011;43755;49.736;8.734;2022-09-21T07:17:11;6.18;;;4.97;;
11447;SDS011;43755;49.736;8.734;2022-09-21T07:19:13;7.38;;;5.68;;
11447;SDS011;43755;49.736;8.734;2022-09-21T07:21:15;8.02;;;6.03;;
11447;SDS011;43755;49.736;8.734;2022-09-21T07:23:17;7.95;;;5.80;;
11447;SDS011;43755;49.736;8.734;2022-09-21T07:25:21;5.53;;;5.03;;
11447;SDS011;43755;49.736;8.734;2022-09-21T07:27:24;6.32;;;5.40;;
11447;SDS011;43755;49.736;8.734;2022-09-21T07:29:26;6.10;;;5.60;;
11447;SDS011;43755;49.736;8.734;2022-09-21T07:31:27;6.25;;;5.03;;
11447;SDS011;43755;49.736;8.734;2022-09-21T07:33:29;6.78;;;4.72;;
11447;SDS011;43755;49.736;8.734;2022-09-21T07:35:32;6.03;;;4.65;;
11447;SDS011;43755;49.736;8.734;2022-09-21T07:37:34;6.38;;;4.35;;
11447;SDS011;43755;49.736;8.734;2022-09-21T07:39:36;4.85;;;4.00;;
11447;SDS011;43755;49.736;8.734;2022-09-21T07:41:37;4.03;;;3.60;;
11447;SDS011;43755;49.736;8.734;2022-09-21T07:43:40;4.60;;;3.20;;
11447;SDS011;43755;49.736;8.734;2022-09-21T07:45:42;3.17;;;2.90;;
11447;SDS011;43755;49.736;8.734;2022-09-21T07:47:43;4.63;;;3.20;;
11447;SDS011;43755;49.736;8.734;2022-09-21T07:49:45;3.60;;;2.60;;
11447;SDS011;43755;49.736;8.734;2022-09-21T07:51:46;2.40;;;2.13;;
11447;SDS011;43755;49.736;8.734;2022-09-21T07:53:52;2.75;;;2.35;;
11447;SDS011;43755;49.736;8.734;2022-09-21T07:55:59;2.30;;;2.10;;
11447;SDS011;43755;49.736;8.734;2022-09-21T07:58:01;2.22;;;2.00;;
11447;SDS011;43755;49.736;8.734;2022-09-21T08:00:21;3.90;;;2.15;;
11447;SDS011;43755;49.736;8.734;2022-09-21T08:02:23;2.88;;;2.10;;
11447;SDS011;43755;49.736;8.734;2022-09-21T08:04:24;2.75;;;1.63;;
11447;SDS011;43755;49.736;8.734;2022-09-21T08:06:26;3.63;;;1.67;;
11447;SDS011;43755;49.736;8.734;2022-09-21T08:08:31;1.67;;;1.58;;
11447;SDS011;43755;49.736;8.734;2022-09-21T08:10:33;4.93;;;1.60;;
11447;SDS011;43755;49.736;8.734;2022-09-21T08:12:35;1.98;;;1.48;;
11447;SDS011;43755;49.736;8.734;2022-09-21T08:14:36;2.90;;;1.98;;
11447;SDS011;43755;49.736;8.734;2022-09-21T08:16:39;2.58;;;1.63;;
11447;SDS011;43755;49.736;8.734;2022-09-21T08:18:40;3.30;;;1.67;;
11447;SDS011;43755;49.736;8.734;2022-09-21T08:20:42;2.88;;;1.80;;
11447;SDS011;43755;49.736;8.734;2022-09-21T08:22:44;2.72;;;1.73;;
11447;SDS011;43755;49.736;8.734;2022-09-21T08:24:45;4.15;;;1.70;;
11447;SDS011;43755;49.736;8.734;2022-09-21T08:26:46;2.13;;;1.63;;
11447;SDS011;43755;49.736;8.734;2022-09-21T08:28:51;2.10;;;1.70;;
11447;SDS011;43755;49.736;8.734;2022-09-21T08:30:57;3.30;;;1.50;;
11447;SDS011;43755;49.736;8.734;2022-09-21T08:33:01;2.97;;;1.98;;
11447;SDS011;43755;49.736;8.734;2022-09-21T08:35:02;2.92;;;1.88;;
11447;SDS011;43755;49.736;8.734;2022-09-21T08:37:04;1.60;;;1.50;;
11447;SDS011;43755;49.736;8.734;2022-09-21T08:39:06;2.80;;;1.90;;
11447;SDS011;43755;49.736;8.734;2022-09-21T08:41:12;4.93;;;2.00;;
11447;SDS011;43755;49.736;8.734;2022-09-21T08:43:17;3.45;;;2.05;;
11447;SDS011;43755;49.736;8.734;2022-09-21T08:45:31;4.40;;;1.70;;
11447;SDS011;43755;49.736;8.734;2022-09-21T08:47:35;3.08;;;1.80;;
11447;SDS011;43755;49.736;8.734;2022-09-21T08:49:43;3.55;;;1.60;;
11447;SDS011;43755;49.736;8.734;2022-09-21T08:51:48;3.60;;;1.63;;
11447;SDS011;43755;49.736;8.734;2022-09-21T08:53:54;2.03;;;1.60;;
11447;SDS011;43755;49.736;8.734;2022-09-21T08:55:58;2.90;;;1.50;;
11447;SDS011;43755;49.736;8.734;2022-09-21T08:58:01;1.92;;;1.30;;
11447;SDS011;43755;49.736;8.734;2022-09-21T09:00:06;2.92;;;1.83;;
11447;SDS011;43755;49.736;8.734;2022-09-21T09:02:22;3.47;;;1.60;;
11447;SDS011;43755;49.736;8.734;2022-09-21T09:04:39;3.30;;;1.70;;
11447;SDS011;43755;49.736;8.734;2022-09-21T09:06:56;2.47;;;1.70;;
11447;SDS011;43755;49.736;8.734;2022-09-21T09:09:16;3.63;;;1.63;;
11447;SDS011;43755;49.736;8.734;2022-09-21T09:11:42;2.95;;;1.77;;
11447;SDS011;43755;49.736;8.734;2022-09-21T09:13:56;3.85;;;1.80;;
11447;SDS011;43755;49.736;8.734;2022-09-21T09:16:22;2.85;;;1.67;;
11447;SDS011;43755;49.736;8.734;2022-09-21T09:18:37;3.17;;;1.48;;
11447;SDS011;43755;49.736;8.734;2022-09-21T09:20:45;2.90;;;1.48;;
11447;SDS011;43755;49.736;8.734;2022-09-21T09:22:54;3.22;;;1.58;;
11447;SDS011;43755;49.736;8.734;2022-09-21T09:25:05;3.50;;;1.60;;
11447;SDS011;43755;49.736;8.734;2022-09-21T09:27:16;2.40;;;1.60;;
11447;SDS011;43755;49.736;8.734;2022-09-21T09:29:23;1.77;;;1.40;;
11447;SDS011;43755;49.736;8.734;2022-09-21T09:31:32;2.10;;;1.70;;
11447;SDS011;43755;49.736;8.734;2022-09-21T09:33:39;3.58;;;1.40;;
11447;SDS011;43755;49.736;8.734;2022-09-21T09:35:50;2.42;;;1.40;;
11447;SDS011;43755;49.736;8.734;2022-09-21T09:37:56;1.38;;;1.27;;
11447;SDS011;43755;49.736;8.734;2022-09-21T09:40:02;1.30;;;1.20;;
11447;SDS011;43755;49.736;8.734;2022-09-21T09:42:12;2.97;;;1.50;;
11447;SDS011;43755;49.736;8.734;2022-09-21T09:44:30;2.13;;;1.02;;
11447;SDS011;43755;49.736;8.734;2022-09-21T09:46:48;1.85;;;1.15;;
11447;SDS011;43755;49.736;8.734;2022-09-21T09:49:05;1.85;;;1.08;;
11447;SDS011;43755;49.736;8.734;2022-09-21T09:51:16;1.88;;;0.90;;
11447;SDS011;43755;49.736;8.734;2022-09-21T09:53:19;1.10;;;0.90;;
11447;SDS011;43755;49.736;8.734;2022-09-21T09:55:22;1.60;;;1.20;;
11447;SDS011;43755;49.736;8.734;2022-09-21T09:57:29;2.55;;;1.00;;
11447;SDS011;43755;49.736;8.734;2022-09-21T09:59:33;2.65;;;1.23;;
11447;SDS011;43755;49.736;8.734;2022-09-21T10:01:38;0.70;;;0.70;;
11447;SDS011;43755;49.736;8.734;2022-09-21T10:03:41;1.67;;;1.10;;
11447;SDS011;43755;49.736;8.734;2022-09-21T10:05:43;1.30;;;1.17;;
11447;SDS011;43755;49.736;8.734;2022-09-21T10:07:46;1.95;;;1.17;;
11447;SDS011;43755;49.736;8.734;2022-09-21T10:09:48;1.85;;;1.10;;
11447;SDS011;43755;49.736;8.734;2022-09-21T10:11:50;2.70;;;1.10;;
11447;SDS011;43755;49.736;8.734;2022-09-21T10:13:52;1.55;;;1.13;;
11447;SDS011;43755;49.736;8.734;2022-09-21T10:15:54;1.55;;;1.40;;
11447;SDS011;43755;49.736;8.734;2022-09-21T10:18:01;2.05;;;1.30;;
11447;SDS011;43755;49.736;8.734;2022-09-21T10:20:13;3.25;;;1.10;;
11447;SDS011;43755;49.736;8.734;2022-09-21T10:22:17;1.10;;;0.90;;
11447;SDS011;43755;49.736;8.734;2022-09-21T10:24:22;2.63;;;1.30;;
11447;SDS011;43755;49.736;8.734;2022-09-21T10:26:29;2.25;;;1.30;;
11447;SDS011;43755;49.736;8.734;2022-09-21T10:28:34;1.65;;;1.20;;
11447;SDS011;43755;49.736;8.734;2022-09-21T10:30:37;2.08;;;1.00;;
11447;SDS011;43755;49.736;8.734;2022-09-21T10:32:38;1.38;;;0.98;;
11447;SDS011;43755;49.736;8.734;2022-09-21T10:34:59;0.90;;;0.90;;
11447;SDS011;43755;49.736;8.734;2022-09-21T10:37:22;1.67;;;1.20;;
11447;SDS011;43755;49.736;8.734;2022-09-21T10:39:28;2.28;;;1.23;;
11447;SDS011;43755;49.736;8.734;2022-09-21T10:41:31;1.60;;;1.00;;
11447;SDS011;43755;49.736;8.734;2022-09-21T10:43:32;1.35;;;1.10;;
11447;SDS011;43755;49.736;8.734;2022-09-21T10:45:41;3.92;;;1.05;;
11447;SDS011;43755;49.736;8.734;2022-09-21T10:47:54;2.25;;;1.30;;
11447;SDS011;43755;49.736;8.734;2022-09-21T10:49:59;2.72;;;1.30;;
11447;SDS011;43755;49.736;8.734;2022-09-21T10:52:02;1.45;;;1.33;;
11447;SDS011;43755;49.736;8.734;2022-09-21T10:54:06;2.63;;;1.20;;
11447;SDS011;43755;49.736;8.734;2022-09-21T10:56:14;2.58;;;1.45;;
11447;SDS011;43755;49.736;8.734;2022-09-21T10:58:18;1.92;;;1.60;;
11447;SDS011;43755;49.736;8.734;2022-09-21T11:00:31;1.83;;;1.50;;
11447;SDS011;43755;49.736;8.734;2022-09-21T11:02:35;1.63;;;1.50;;
11447;SDS011;43755;49.736;8.734;2022-09-21T11:04:39;2.30;;;1.63;;
11447;SDS011;43755;49.736;8.734;2022-09-21T11:06:43;2.50;;;1.60;;
11447;SDS011;43755;49.736;8.734;2022-09-21T11:08:48;2.58;;;1.73;;
11447;SDS011;43755;49.736;8.734;2022-09-21T11:10:58;1.90;;;1.80;;
11447;SDS011;43755;49.736;8.734;2022-09-21T11:13:16;1.65;;;1.55;;
11447;SDS011;43755;49.736;8.734;2022-09-21T11:15:39;1.73;;;1.40;;
11447;SDS011;43755;49.736;8.734;2022-09-21T11:17:47;1.52;;;1.40;;
11447;SDS011;43755;49.736;8.734;2022-09-21T11:19:56;4.05;;;1.38;;
11447;SDS011;43755;49.736;8.734;2022-09-21T11:22:06;1.85;;;1.67;;
11447;SDS011;43755;49.736;8.734;2022-09-21T11:24:21;2.25;;;1.60;;
11447;SDS011;43755;49.736;8.734;2022-09-21T11:26:29;1.77;;;1.60;;
11447;SDS011;43755;49.736;8.734;2022-09-21T11:28:38;2.75;;;1.50;;
11447;SDS011;43755;49.736;8.734;2022-09-21T11:30:55;1.58;;;1.48;;
11447;SDS011;43755;49.736;8.734;2022-09-21T11:33:09;1.85;;;1.60;;
11447;SDS011;43755;49.736;8.734;2022-09-21T11:37:49;1.50;;;1.40;;
11447;SDS011;43755;49.736;8.734;2022-09-21T11:39:59;3.60;;;1.20;;
11447;SDS011;43755;49.736;8.734;2022-09-21T11:42:13;1.63;;;1.20;;
11447;SDS011;43755;49.736;8.734;2022-09-21T11:44:30;2.20;;;1.23;;
11447;SDS011;43755;49.736;8.734;2022-09-21T11:46:43;1.90;;;1.30;;
11447;SDS011;43755;49.736;8.734;2022-09-21T11:48:54;1.58;;;1.30;;
11447;SDS011;43755;49.736;8.734;2022-09-21T11:51:12;2.47;;;1.40;;
11447;SDS011;43755;49.736;8.734;2022-09-21T11:53:29;1.45;;;1.35;;
11447;SDS011;43755;49.736;8.734;2022-09-21T11:55:42;1.65;;;1.20;;
11447;SDS011;43755;49.736;8.734;2022-09-21T11:57:57;1.38;;;1.25;;
11447;SDS011;43755;49.736;8.734;2022-09-21T12:00:09;1.65;;;1.10;;
11447;SDS011;43755;49.736;8.734;2022-09-21T12:02:28;0.88;;;0.82;;
11447;SDS011;43755;49.736;8.734;2022-09-21T12:04:41;1.92;;;1.33;;
11447;SDS011;43755;49.736;8.734;2022-09-21T12:06:50;1.35;;;1.10;;
11447;SDS011;43755;49.736;8.734;2022-09-21T12:09:09;1.70;;;1.00;;
11447;SDS011;43755;49.736;8.734;2022-09-21T12:11:32;1.20;;;1.10;;
11447;SDS011;43755;49.736;8.734;2022-09-21T12:13:39;0.80;;;0.77;;
11447;SDS011;43755;49.736;8.734;2022-09-21T12:15:53;0.63;;;0.63;;
11447;SDS011;43755;49.736;8.734;2022-09-21T12:18:02;1.05;;;0.60;;
11447;SDS011;43755;49.736;8.734;2022-09-21T12:20:10;0.93;;;0.70;;
11447;SDS011;43755;49.736;8.734;2022-09-21T12:22:18;0.80;;;0.73;;
11447;SDS011;43755;49.736;8.734;2022-09-21T12:24:26;0.60;;;0.60;;
11447;SDS011;43755;49.736;8.734;2022-09-21T12:26:32;1.50;;;0.82;;
11447;SDS011;43755;49.736;8.734;2022-09-21T12:28:39;0.50;;;0.50;;
11447;SDS011;43755;49.736;8.734;2022-09-21T12:30:45;1.10;;;0.90;;
11447;SDS011;43755;49.736;8.734;2022-09-21T12:32:55;4.82;;;1.02;;
11447;SDS011;43755;49.736;8.734;2022-09-21T12:35:02;1.15;;;0.80;;
11447;SDS011;43755;49.736;8.734;2022-09-21T12:37:08;0.90;;;0.68;;
11447;SDS011;43755;49.736;8.734;2022-09-21T12:39:17;0.40;;;0.40;;